sensor_id;sensor_type;location;lat;lon;timestamp;P1;durP1;ratioP1;P2;durP2;ratioP2
25553;SDS011;13446;50.926;5.332;2024-02-04T00:00:34;26.48;;;14.02;;
25553;SDS011;13446;50.926;5.332;2024-02-04T00:03:01;25.90;;;14.38;;
25553;SDS011;13446;50.926;5.332;2024-02-04T00:05:30;22.33;;;14.75;;
25553;SDS011;13446;50.926;5.332;2024-02-04T00:07:56;27.48;;;15.43;;
25553;SDS011;13446;50.926;5.332;2024-02-04T00:10:37;22.02;;;14.23;;
25553;SDS011;13446;50.926;5.332;2024-02-04T00:13:39;20.95;;;13.43;;
25553;SDS011;13446;50.926;5.332;2024-02-04T00:16:08;21.33;;;13.95;;
25553;SDS011;13446;50.926;5.332;2024-02-04T00:18:33;24.75;;;14.65;;
25553;SDS011;13446;50.926;5.332;2024-02-04T00:20:59;26.15;;;14.48;;
25553;SDS011;13446;50.926;5.332;2024-02-04T00:23:25;22.52;;;14.10;;
25553;SDS011;13446;50.926;5.332;2024-02-04T00:25:50;23.83;;;13.43;;
25553;SDS011;13446;50.926;5.332;2024-02-04T00:28:16;23.88;;;13.98;;
25553;SDS011;13446;50.926;5.332;2024-02-04T00:30:43;21.00;;;13.05;;
25553;SDS011;13446;50.926;5.332;2024-02-04T00:33:09;23.15;;;12.98;;
25553;SDS011;13446;50.926;5.332;2024-02-04T00:35:35;22.13;;;12.90;;
25553;SDS011;13446;50.926;5.332;2024-02-04T00:38:02;22.25;;;13.18;;
25553;SDS011;13446;50.926;5.332;2024-02-04T00:40:28;19.35;;;12.85;;
25553;SDS011;13446;50.926;5.332;2024-02-04T00:42:54;24.17;;;12.88;;
25553;SDS011;13446;50.926;5.332;2024-02-04T00:45:19;22.80;;;13.05;;
25553;SDS011;13446;50.926;5.332;2024-02-04T00:47:45;20.40;;;12.93;;
25553;SDS011;13446;50.926;5.332;2024-02-04T00:50:11;22.15;;;12.57;;
25553;SDS011;13446;50.926;5.332;2024-02-04T00:52:38;24.25;;;12.93;;
25553;SDS011;13446;50.926;5.332;2024-02-04T00:55:04;22.35;;;12.90;;
25553;SDS011;13446;50.926;5.332;2024-02-04T00:57:30;22.70;;;12.32;;
25553;SDS011;13446;50.926;5.332;2024-02-04T00:59:55;22.05;;;12.57;;
25553;SDS011;13446;50.926;5.332;2024-02-04T01:02:21;24.25;;;12.40;;
25553;SDS011;13446;50.926;5.332;2024-02-04T01:04:47;21.38;;;12.05;;
25553;SDS011;13446;50.926;5.332;2024-02-04T01:07:13;23.05;;;11.75;;
25553;SDS011;13446;50.926;5.332;2024-02-04T01:09:39;21.73;;;12.18;;
25553;SDS011;13446;50.926;5.332;2024-02-04T01:12:05;22.20;;;12.43;;
25553;SDS011;13446;50.926;5.332;2024-02-04T01:14:31;19.85;;;11.50;;
25553;SDS011;13446;50.926;5.332;2024-02-04T01:16:57;19.75;;;10.95;;
25553;SDS011;13446;50.926;5.332;2024-02-04T01:19:22;21.63;;;11.25;;
25553;SDS011;13446;50.926;5.332;2024-02-04T01:21:48;18.00;;;10.85;;
25553;SDS011;13446;50.926;5.332;2024-02-04T01:24:14;23.20;;;10.70;;
25553;SDS011;13446;50.926;5.332;2024-02-04T01:26:39;18.25;;;10.13;;
25553;SDS011;13446;50.926;5.332;2024-02-04T01:29:05;17.67;;;10.25;;
25553;SDS011;13446;50.926;5.332;2024-02-04T01:31:31;15.00;;;9.70;;
25553;SDS011;13446;50.926;5.332;2024-02-04T01:33:56;15.70;;;9.57;;
25553;SDS011;13446;50.926;5.332;2024-02-04T01:36:22;19.23;;;9.70;;
25553;SDS011;13446;50.926;5.332;2024-02-04T01:38:48;13.60;;;9.20;;
25553;SDS011;13446;50.926;5.332;2024-02-04T01:41:14;13.82;;;9.15;;
25553;SDS011;13446;50.926;5.332;2024-02-04T01:43:40;14.68;;;8.68;;
25553;SDS011;13446;50.926;5.332;2024-02-04T01:46:06;17.60;;;9.05;;
25553;SDS011;13446;50.926;5.332;2024-02-04T01:48:32;12.70;;;8.52;;
25553;SDS011;13446;50.926;5.332;2024-02-04T01:50:58;14.73;;;8.52;;
25553;SDS011;13446;50.926;5.332;2024-02-04T01:53:26;13.70;;;8.73;;
25553;SDS011;13446;50.926;5.332;2024-02-04T01:55:53;13.13;;;7.97;;
25553;SDS011;13446;50.926;5.332;2024-02-04T01:58:20;16.23;;;8.25;;
25553;SDS011;13446;50.926;5.332;2024-02-04T02:00:46;12.25;;;8.70;;
25553;SDS011;13446;50.926;5.332;2024-02-04T02:03:14;15.65;;;8.90;;
25553;SDS011;13446;50.926;5.332;2024-02-04T02:05:41;14.07;;;8.02;;
25553;SDS011;13446;50.926;5.332;2024-02-04T02:08:07;15.38;;;8.00;;
25553;SDS011;13446;50.926;5.332;2024-02-04T02:10:33;12.40;;;7.90;;
25553;SDS011;13446;50.926;5.332;2024-02-04T02:13:00;10.23;;;7.50;;
25553;SDS011;13446;50.926;5.332;2024-02-04T02:15:36;10.48;;;7.40;;
25553;SDS011;13446;50.926;5.332;2024-02-04T02:18:10;27.05;;;16.33;;
25553;SDS011;13446;50.926;5.332;2024-02-04T02:23:13;13.73;;;8.35;;
25553;SDS011;13446;50.926;5.332;2024-02-04T02:25:45;12.25;;;7.78;;
25553;SDS011;13446;50.926;5.332;2024-02-04T02:28:11;11.38;;;6.85;;
25553;SDS011;13446;50.926;5.332;2024-02-04T02:30:37;15.00;;;7.85;;
25553;SDS011;13446;50.926;5.332;2024-02-04T02:33:03;12.40;;;7.32;;
25553;SDS011;13446;50.926;5.332;2024-02-04T02:35:30;12.57;;;7.68;;
25553;SDS011;13446;50.926;5.332;2024-02-04T02:38:20;11.02;;;7.28;;
25553;SDS011;13446;50.926;5.332;2024-02-04T02:40:54;9.60;;;7.55;;
25553;SDS011;13446;50.926;5.332;2024-02-04T02:43:24;13.10;;;7.70;;
25553;SDS011;13446;50.926;5.332;2024-02-04T02:45:51;13.90;;;8.13;;
25553;SDS011;13446;50.926;5.332;2024-02-04T02:48:18;14.23;;;7.88;;
25553;SDS011;13446;50.926;5.332;2024-02-04T02:50:44;9.95;;;6.38;;
25553;SDS011;13446;50.926;5.332;2024-02-04T02:53:10;16.38;;;7.55;;
25553;SDS011;13446;50.926;5.332;2024-02-04T02:55:36;13.23;;;7.75;;
25553;SDS011;13446;50.926;5.332;2024-02-04T02:58:01;13.32;;;7.40;;
25553;SDS011;13446;50.926;5.332;2024-02-04T03:00:27;12.65;;;7.43;;
25553;SDS011;13446;50.926;5.332;2024-02-04T03:02:53;15.00;;;7.57;;
25553;SDS011;13446;50.926;5.332;2024-02-04T03:05:19;16.40;;;7.60;;
25553;SDS011;13446;50.926;5.332;2024-02-04T03:07:45;12.90;;;7.07;;
25553;SDS011;13446;50.926;5.332;2024-02-04T03:10:11;15.73;;;7.47;;
25553;SDS011;13446;50.926;5.332;2024-02-04T03:12:36;12.20;;;7.00;;
25553;SDS011;13446;50.926;5.332;2024-02-04T03:15:02;12.57;;;7.63;;
25553;SDS011;13446;50.926;5.332;2024-02-04T03:17:28;11.45;;;7.05;;
25553;SDS011;13446;50.926;5.332;2024-02-04T03:19:55;11.70;;;7.38;;
25553;SDS011;13446;50.926;5.332;2024-02-04T03:22:21;12.00;;;7.72;;
25553;SDS011;13446;50.926;5.332;2024-02-04T03:24:47;16.90;;;7.35;;
25553;SDS011;13446;50.926;5.332;2024-02-04T03:27:13;15.88;;;8.02;;
25553;SDS011;13446;50.926;5.332;2024-02-04T03:29:39;14.50;;;7.75;;
25553;SDS011;13446;50.926;5.332;2024-02-04T03:32:06;14.30;;;8.73;;
25553;SDS011;13446;50.926;5.332;2024-02-04T03:34:32;17.13;;;7.97;;
25553;SDS011;13446;50.926;5.332;2024-02-04T03:36:58;13.93;;;7.18;;
25553;SDS011;13446;50.926;5.332;2024-02-04T03:39:24;15.77;;;8.32;;
25553;SDS011;13446;50.926;5.332;2024-02-04T03:41:49;12.88;;;8.27;;
25553;SDS011;13446;50.926;5.332;2024-02-04T03:44:15;17.60;;;8.35;;
25553;SDS011;13446;50.926;5.332;2024-02-04T03:46:41;14.93;;;8.20;;
25553;SDS011;13446;50.926;5.332;2024-02-04T03:49:07;17.52;;;8.93;;
25553;SDS011;13446;50.926;5.332;2024-02-04T03:51:33;14.13;;;7.80;;
25553;SDS011;13446;50.926;5.332;2024-02-04T03:53:59;17.08;;;8.05;;
25553;SDS011;13446;50.926;5.332;2024-02-04T03:56:27;14.60;;;8.15;;
25553;SDS011;13446;50.926;5.332;2024-02-04T03:58:53;17.85;;;9.05;;
25553;SDS011;13446;50.926;5.332;2024-02-04T04:01:19;11.55;;;7.85;;
25553;SDS011;13446;50.926;5.332;2024-02-04T04:03:45;13.55;;;7.85;;
25553;SDS011;13446;50.926;5.332;2024-02-04T04:06:14;14.30;;;8.27;;
25553;SDS011;13446;50.926;5.332;2024-02-04T04:08:39;15.23;;;8.25;;
25553;SDS011;13446;50.926;5.332;2024-02-04T04:11:07;16.52;;;8.48;;
25553;SDS011;13446;50.926;5.332;2024-02-04T04:13:33;13.68;;;8.45;;
25553;SDS011;13446;50.926;5.332;2024-02-04T04:15:59;14.23;;;8.07;;
25553;SDS011;13446;50.926;5.332;2024-02-04T04:18:25;15.27;;;7.72;;
25553;SDS011;13446;50.926;5.332;2024-02-04T04:20:51;17.83;;;7.75;;
25553;SDS011;13446;50.926;5.332;2024-02-04T04:23:17;12.50;;;7.28;;
25553;SDS011;13446;50.926;5.332;2024-02-04T04:25:42;12.88;;;7.55;;
25553;SDS011;13446;50.926;5.332;2024-02-04T04:28:08;15.30;;;8.23;;
25553;SDS011;13446;50.926;5.332;2024-02-04T04:30:34;11.48;;;7.68;;
25553;SDS011;13446;50.926;5.332;2024-02-04T04:33:00;14.68;;;7.82;;
25553;SDS011;13446;50.926;5.332;2024-02-04T04:35:25;15.32;;;7.97;;
25553;SDS011;13446;50.926;5.332;2024-02-04T04:37:51;12.20;;;8.13;;
25553;SDS011;13446;50.926;5.332;2024-02-04T04:40:18;14.25;;;7.97;;
25553;SDS011;13446;50.926;5.332;2024-02-04T04:42:44;18.38;;;8.73;;
25553;SDS011;13446;50.926;5.332;2024-02-04T04:45:10;15.02;;;8.50;;
25553;SDS011;13446;50.926;5.332;2024-02-04T04:47:36;14.55;;;8.90;;
25553;SDS011;13446;50.926;5.332;2024-02-04T04:50:02;15.60;;;8.90;;
25553;SDS011;13446;50.926;5.332;2024-02-04T04:52:30;14.90;;;8.38;;
25553;SDS011;13446;50.926;5.332;2024-02-04T04:54:55;11.38;;;7.72;;
25553;SDS011;13446;50.926;5.332;2024-02-04T04:57:21;15.90;;;8.20;;
25553;SDS011;13446;50.926;5.332;2024-02-04T04:59:49;16.50;;;8.27;;
25553;SDS011;13446;50.926;5.332;2024-02-04T05:02:17;13.80;;;7.75;;
25553;SDS011;13446;50.926;5.332;2024-02-04T05:04:43;12.30;;;7.25;;
25553;SDS011;13446;50.926;5.332;2024-02-04T05:07:13;12.13;;;7.30;;
25553;SDS011;13446;50.926;5.332;2024-02-04T05:09:38;15.20;;;8.02;;
25553;SDS011;13446;50.926;5.332;2024-02-04T05:12:04;18.00;;;8.18;;
25553;SDS011;13446;50.926;5.332;2024-02-04T05:14:33;16.30;;;8.30;;
25553;SDS011;13446;50.926;5.332;2024-02-04T05:16:59;19.50;;;9.25;;
25553;SDS011;13446;50.926;5.332;2024-02-04T05:19:25;17.10;;;9.02;;
25553;SDS011;13446;50.926;5.332;2024-02-04T05:21:51;14.25;;;8.88;;
25553;SDS011;13446;50.926;5.332;2024-02-04T05:24:18;16.73;;;9.07;;
25553;SDS011;13446;50.926;5.332;2024-02-04T05:26:44;17.00;;;8.52;;
25553;SDS011;13446;50.926;5.332;2024-02-04T05:29:09;16.27;;;8.95;;
25553;SDS011;13446;50.926;5.332;2024-02-04T05:31:44;19.73;;;7.95;;
25553;SDS011;13446;50.926;5.332;2024-02-04T05:34:10;14.07;;;8.18;;
25553;SDS011;13446;50.926;5.332;2024-02-04T05:36:37;16.63;;;8.27;;
25553;SDS011;13446;50.926;5.332;2024-02-04T05:39:12;15.10;;;7.80;;
25553;SDS011;13446;50.926;5.332;2024-02-04T05:41:39;17.33;;;8.60;;
25553;SDS011;13446;50.926;5.332;2024-02-04T05:44:05;14.00;;;7.97;;
25553;SDS011;13446;50.926;5.332;2024-02-04T05:46:33;12.45;;;7.75;;
25553;SDS011;13446;50.926;5.332;2024-02-04T05:49:00;14.55;;;7.72;;
25553;SDS011;13446;50.926;5.332;2024-02-04T05:51:25;19.83;;;8.30;;
25553;SDS011;13446;50.926;5.332;2024-02-04T05:53:52;17.23;;;7.70;;
25553;SDS011;13446;50.926;5.332;2024-02-04T05:56:18;10.98;;;7.55;;
25553;SDS011;13446;50.926;5.332;2024-02-04T05:58:45;15.80;;;7.68;;
25553;SDS011;13446;50.926;5.332;2024-02-04T06:01:11;13.65;;;7.97;;
25553;SDS011;13446;50.926;5.332;2024-02-04T06:03:37;14.18;;;7.78;;
25553;SDS011;13446;50.926;5.332;2024-02-04T06:06:03;12.60;;;7.30;;
25553;SDS011;13446;50.926;5.332;2024-02-04T06:08:29;12.80;;;7.18;;
25553;SDS011;13446;50.926;5.332;2024-02-04T06:10:54;10.20;;;6.72;;
25553;SDS011;13446;50.926;5.332;2024-02-04T06:13:20;12.68;;;6.65;;
25553;SDS011;13446;50.926;5.332;2024-02-04T06:15:46;12.48;;;7.57;;
25553;SDS011;13446;50.926;5.332;2024-02-04T06:18:12;11.38;;;6.68;;
25553;SDS011;13446;50.926;5.332;2024-02-04T06:20:38;10.10;;;6.07;;
25553;SDS011;13446;50.926;5.332;2024-02-04T06:23:07;8.95;;;5.35;;
25553;SDS011;13446;50.926;5.332;2024-02-04T06:25:33;12.77;;;6.20;;
25553;SDS011;13446;50.926;5.332;2024-02-04T06:27:58;11.13;;;5.50;;
25553;SDS011;13446;50.926;5.332;2024-02-04T06:30:24;10.00;;;6.38;;
25553;SDS011;13446;50.926;5.332;2024-02-04T06:32:50;9.93;;;6.35;;
25553;SDS011;13446;50.926;5.332;2024-02-04T06:35:16;10.85;;;6.70;;
25553;SDS011;13446;50.926;5.332;2024-02-04T06:37:41;9.57;;;6.28;;
25553;SDS011;13446;50.926;5.332;2024-02-04T06:40:10;12.98;;;7.10;;
25553;SDS011;13446;50.926;5.332;2024-02-04T06:42:36;10.10;;;6.07;;
25553;SDS011;13446;50.926;5.332;2024-02-04T06:45:01;11.82;;;7.18;;
25553;SDS011;13446;50.926;5.332;2024-02-04T06:47:27;11.35;;;7.63;;
25553;SDS011;13446;50.926;5.332;2024-02-04T06:49:53;15.38;;;6.60;;
25553;SDS011;13446;50.926;5.332;2024-02-04T06:52:18;11.05;;;6.82;;
25553;SDS011;13446;50.926;5.332;2024-02-04T06:54:44;16.02;;;7.20;;
25553;SDS011;13446;50.926;5.332;2024-02-04T06:57:10;14.30;;;6.55;;
25553;SDS011;13446;50.926;5.332;2024-02-04T06:59:36;11.30;;;6.68;;
25553;SDS011;13446;50.926;5.332;2024-02-04T07:02:02;14.20;;;6.93;;
25553;SDS011;13446;50.926;5.332;2024-02-04T07:04:27;14.57;;;7.00;;
25553;SDS011;13446;50.926;5.332;2024-02-04T07:06:53;13.07;;;7.28;;
25553;SDS011;13446;50.926;5.332;2024-02-04T07:09:19;18.27;;;7.60;;
25553;SDS011;13446;50.926;5.332;2024-02-04T07:11:45;15.48;;;7.70;;
25553;SDS011;13446;50.926;5.332;2024-02-04T07:14:11;14.88;;;7.57;;
25553;SDS011;13446;50.926;5.332;2024-02-04T07:16:37;14.75;;;7.95;;
25553;SDS011;13446;50.926;5.332;2024-02-04T07:19:02;15.73;;;7.28;;
25553;SDS011;13446;50.926;5.332;2024-02-04T07:21:29;16.48;;;8.00;;
25553;SDS011;13446;50.926;5.332;2024-02-04T07:23:54;15.43;;;7.63;;
25553;SDS011;13446;50.926;5.332;2024-02-04T07:26:22;19.23;;;8.38;;
25553;SDS011;13446;50.926;5.332;2024-02-04T07:28:47;18.38;;;7.70;;
25553;SDS011;13446;50.926;5.332;2024-02-04T07:31:13;16.00;;;7.60;;
25553;SDS011;13446;50.926;5.332;2024-02-04T07:33:39;17.58;;;8.20;;
25553;SDS011;13446;50.926;5.332;2024-02-04T07:36:04;19.13;;;7.68;;
25553;SDS011;13446;50.926;5.332;2024-02-04T07:38:31;15.27;;;7.68;;
25553;SDS011;13446;50.926;5.332;2024-02-04T07:40:57;12.52;;;7.28;;
25553;SDS011;13446;50.926;5.332;2024-02-04T07:43:25;13.27;;;7.15;;
25553;SDS011;13446;50.926;5.332;2024-02-04T07:45:53;17.65;;;7.53;;
25553;SDS011;13446;50.926;5.332;2024-02-04T07:48:19;13.90;;;6.57;;
25553;SDS011;13446;50.926;5.332;2024-02-04T07:50:45;13.30;;;6.03;;
25553;SDS011;13446;50.926;5.332;2024-02-04T07:55:46;11.63;;;5.88;;
25553;SDS011;13446;50.926;5.332;2024-02-04T07:58:12;13.27;;;6.55;;
25553;SDS011;13446;50.926;5.332;2024-02-04T08:00:38;13.98;;;6.60;;
25553;SDS011;13446;50.926;5.332;2024-02-04T08:03:05;15.57;;;6.93;;
25553;SDS011;13446;50.926;5.332;2024-02-04T08:05:30;11.32;;;6.35;;
25553;SDS011;13446;50.926;5.332;2024-02-04T08:07:56;15.20;;;6.90;;
25553;SDS011;13446;50.926;5.332;2024-02-04T08:10:22;13.10;;;7.28;;
25553;SDS011;13446;50.926;5.332;2024-02-04T08:12:48;12.63;;;6.90;;
25553;SDS011;13446;50.926;5.332;2024-02-04T08:15:16;13.35;;;7.13;;
25553;SDS011;13446;50.926;5.332;2024-02-04T08:17:42;15.80;;;7.00;;
25553;SDS011;13446;50.926;5.332;2024-02-04T08:20:08;13.43;;;6.75;;
25553;SDS011;13446;50.926;5.332;2024-02-04T08:22:36;15.77;;;7.13;;
25553;SDS011;13446;50.926;5.332;2024-02-04T08:25:02;12.20;;;6.32;;
25553;SDS011;13446;50.926;5.332;2024-02-04T08:27:28;15.93;;;7.50;;
25553;SDS011;13446;50.926;5.332;2024-02-04T08:30:05;15.23;;;7.28;;
25553;SDS011;13446;50.926;5.332;2024-02-04T08:35:28;15.18;;;6.88;;
25553;SDS011;13446;50.926;5.332;2024-02-04T08:38:12;13.23;;;7.53;;
25553;SDS011;13446;50.926;5.332;2024-02-04T08:40:38;17.88;;;8.10;;
25553;SDS011;13446;50.926;5.332;2024-02-04T08:43:03;19.75;;;8.25;;
25553;SDS011;13446;50.926;5.332;2024-02-04T08:45:31;17.67;;;8.65;;
25553;SDS011;13446;50.926;5.332;2024-02-04T08:47:57;16.13;;;8.25;;
25553;SDS011;13446;50.926;5.332;2024-02-04T08:50:48;18.13;;;8.35;;
25553;SDS011;13446;50.926;5.332;2024-02-04T08:53:23;18.38;;;8.02;;
25553;SDS011;13446;50.926;5.332;2024-02-04T08:55:54;19.17;;;7.93;;
25553;SDS011;13446;50.926;5.332;2024-02-04T08:58:21;17.52;;;7.95;;
25553;SDS011;13446;50.926;5.332;2024-02-04T09:00:47;19.65;;;7.88;;
25553;SDS011;13446;50.926;5.332;2024-02-04T09:03:29;17.35;;;7.70;;
25553;SDS011;13446;50.926;5.332;2024-02-04T09:05:57;17.58;;;7.22;;
25553;SDS011;13446;50.926;5.332;2024-02-04T09:08:24;15.00;;;7.18;;
25553;SDS011;13446;50.926;5.332;2024-02-04T09:10:49;20.48;;;7.32;;
25553;SDS011;13446;50.926;5.332;2024-02-04T09:13:15;14.93;;;7.47;;
25553;SDS011;13446;50.926;5.332;2024-02-04T09:16:05;16.15;;;7.07;;
25553;SDS011;13446;50.926;5.332;2024-02-04T09:18:31;13.98;;;7.15;;
25553;SDS011;13446;50.926;5.332;2024-02-04T09:20:57;13.00;;;6.82;;
25553;SDS011;13446;50.926;5.332;2024-02-04T09:23:22;12.88;;;6.47;;
25553;SDS011;13446;50.926;5.332;2024-02-04T09:25:48;16.88;;;6.43;;
25553;SDS011;13446;50.926;5.332;2024-02-04T09:28:14;14.75;;;7.05;;
25553;SDS011;13446;50.926;5.332;2024-02-04T09:30:39;14.18;;;7.07;;
25553;SDS011;13446;50.926;5.332;2024-02-04T09:33:05;17.27;;;6.43;;
25553;SDS011;13446;50.926;5.332;2024-02-04T09:35:34;12.25;;;6.15;;
25553;SDS011;13446;50.926;5.332;2024-02-04T09:38:00;13.30;;;6.40;;
25553;SDS011;13446;50.926;5.332;2024-02-04T09:44:07;15.18;;;6.65;;
25553;SDS011;13446;50.926;5.332;2024-02-04T09:46:33;17.80;;;6.35;;
25553;SDS011;13446;50.926;5.332;2024-02-04T09:48:59;11.25;;;6.13;;
25553;SDS011;13446;50.926;5.332;2024-02-04T09:51:27;9.85;;;5.35;;
25553;SDS011;13446;50.926;5.332;2024-02-04T09:53:54;10.98;;;5.55;;
25553;SDS011;13446;50.926;5.332;2024-02-04T09:56:32;13.73;;;5.35;;
25553;SDS011;13446;50.926;5.332;2024-02-04T09:59:02;9.60;;;5.05;;
25553;SDS011;13446;50.926;5.332;2024-02-04T10:01:28;11.60;;;5.28;;
25553;SDS011;13446;50.926;5.332;2024-02-04T10:03:54;9.00;;;5.18;;
25553;SDS011;13446;50.926;5.332;2024-02-04T10:06:20;7.88;;;4.22;;
25553;SDS011;13446;50.926;5.332;2024-02-04T10:08:45;7.20;;;4.10;;
25553;SDS011;13446;50.926;5.332;2024-02-04T10:11:12;11.82;;;4.45;;
25553;SDS011;13446;50.926;5.332;2024-02-04T10:13:47;10.90;;;4.85;;
25553;SDS011;13446;50.926;5.332;2024-02-04T10:16:14;7.25;;;5.05;;
25553;SDS011;13446;50.926;5.332;2024-02-04T10:18:44;11.95;;;4.38;;
25553;SDS011;13446;50.926;5.332;2024-02-04T10:24:45;9.65;;;3.83;;
25553;SDS011;13446;50.926;5.332;2024-02-04T10:27:16;9.30;;;3.65;;
25553;SDS011;13446;50.926;5.332;2024-02-04T10:30:02;6.53;;;3.40;;
25553;SDS011;13446;50.926;5.332;2024-02-04T11:49:44;7.70;;;3.38;;
25553;SDS011;13446;50.926;5.332;2024-02-04T11:52:30;6.43;;;3.17;;
25553;SDS011;13446;50.926;5.332;2024-02-04T11:55:02;10.27;;;3.70;;
25553;SDS011;13446;50.926;5.332;2024-02-04T11:57:30;4.93;;;2.58;;
25553;SDS011;13446;50.926;5.332;2024-02-04T12:00:02;8.18;;;3.40;;
25553;SDS011;13446;50.926;5.332;2024-02-04T12:03:13;9.40;;;2.95;;
25553;SDS011;13446;50.926;5.332;2024-02-04T12:05:49;6.75;;;2.70;;
25553;SDS011;13446;50.926;5.332;2024-02-04T12:08:30;5.10;;;2.22;;
25553;SDS011;13446;50.926;5.332;2024-02-04T12:17:09;4.45;;;2.42;;
25553;SDS011;13446;50.926;5.332;2024-02-04T12:19:44;5.95;;;3.13;;
25553;SDS011;13446;50.926;5.332;2024-02-04T12:22:10;5.53;;;2.50;;
25553;SDS011;13446;50.926;5.332;2024-02-04T12:24:43;3.83;;;2.72;;
25553;SDS011;13446;50.926;5.332;2024-02-04T12:27:29;6.53;;;2.42;;
25553;SDS011;13446;50.926;5.332;2024-02-04T12:33:17;5.72;;;2.80;;
25553;SDS011;13446;50.926;5.332;2024-02-04T12:36:14;3.30;;;2.20;;
25553;SDS011;13446;50.926;5.332;2024-02-04T12:39:06;7.57;;;2.88;;
25553;SDS011;13446;50.926;5.332;2024-02-04T12:41:37;9.80;;;2.70;;
25553;SDS011;13446;50.926;5.332;2024-02-04T12:44:20;3.38;;;2.60;;
25553;SDS011;13446;50.926;5.332;2024-02-04T12:46:55;3.75;;;2.47;;
25553;SDS011;13446;50.926;5.332;2024-02-04T12:49:37;6.97;;;3.28;;
25553;SDS011;13446;50.926;5.332;2024-02-04T12:52:12;7.72;;;3.20;;
25553;SDS011;13446;50.926;5.332;2024-02-04T12:54:47;5.15;;;2.67;;
25553;SDS011;13446;50.926;5.332;2024-02-04T13:00:35;5.10;;;2.65;;
25553;SDS011;13446;50.926;5.332;2024-02-04T13:03:04;4.75;;;2.63;;
25553;SDS011;13446;50.926;5.332;2024-02-04T13:06:07;3.45;;;2.55;;
25553;SDS011;13446;50.926;5.332;2024-02-04T13:08:41;5.97;;;2.60;;
25553;SDS011;13446;50.926;5.332;2024-02-04T13:11:40;3.65;;;2.22;;
25553;SDS011;13446;50.926;5.332;2024-02-04T13:17:09;5.53;;;2.83;;
25553;SDS011;13446;50.926;5.332;2024-02-04T13:19:35;4.35;;;2.40;;
25553;SDS011;13446;50.926;5.332;2024-02-04T13:25:33;4.65;;;2.40;;
25553;SDS011;13446;50.926;5.332;2024-02-04T13:28:02;3.28;;;2.42;;
25553;SDS011;13446;50.926;5.332;2024-02-04T13:30:47;6.25;;;2.30;;
25553;SDS011;13446;50.926;5.332;2024-02-04T13:33:13;4.72;;;2.60;;
25553;SDS011;13446;50.926;5.332;2024-02-04T13:36:00;3.58;;;2.35;;
25553;SDS011;13446;50.926;5.332;2024-02-04T13:38:34;5.88;;;2.50;;
25553;SDS011;13446;50.926;5.332;2024-02-04T13:41:04;10.00;;;2.40;;
25553;SDS011;13446;50.926;5.332;2024-02-04T13:43:33;4.00;;;2.47;;
25553;SDS011;13446;50.926;5.332;2024-02-04T13:46:03;3.05;;;2.28;;
25553;SDS011;13446;50.926;5.332;2024-02-04T13:48:28;3.35;;;2.35;;
25553;SDS011;13446;50.926;5.332;2024-02-04T14:13:48;2.15;;;1.80;;
25553;SDS011;13446;50.926;5.332;2024-02-04T14:16:32;2.17;;;1.67;;
25553;SDS011;13446;50.926;5.332;2024-02-04T14:19:13;3.78;;;1.63;;
25553;SDS011;13446;50.926;5.332;2024-02-04T14:22:24;5.03;;;1.73;;
25553;SDS011;13446;50.926;5.332;2024-02-04T14:27:58;3.30;;;2.20;;
25553;SDS011;13446;50.926;5.332;2024-02-04T14:30:37;2.58;;;1.88;;
25553;SDS011;13446;50.926;5.332;2024-02-04T14:33:18;2.92;;;2.20;;
25553;SDS011;13446;50.926;5.332;2024-02-04T14:35:56;4.45;;;3.08;;
25553;SDS011;13446;50.926;5.332;2024-02-04T14:38:22;2.33;;;1.90;;
25553;SDS011;13446;50.926;5.332;2024-02-04T14:41:02;3.20;;;2.00;;
25553;SDS011;13446;50.926;5.332;2024-02-04T14:43:28;4.18;;;1.63;;
25553;SDS011;13446;50.926;5.332;2024-02-04T14:46:18;3.72;;;1.42;;
25553;SDS011;13446;50.926;5.332;2024-02-04T14:48:49;2.45;;;1.38;;
25553;SDS011;13446;50.926;5.332;2024-02-04T14:51:19;2.33;;;1.50;;
25553;SDS011;13446;50.926;5.332;2024-02-04T14:53:46;1.70;;;1.60;;
25553;SDS011;13446;50.926;5.332;2024-02-04T14:56:11;2.50;;;1.30;;
25553;SDS011;13446;50.926;5.332;2024-02-04T14:58:51;4.40;;;1.40;;
25553;SDS011;13446;50.926;5.332;2024-02-04T15:01:16;2.22;;;1.38;;
25553;SDS011;13446;50.926;5.332;2024-02-04T15:03:42;1.83;;;1.20;;
25553;SDS011;13446;50.926;5.332;2024-02-04T15:06:08;1.90;;;1.40;;
25553;SDS011;13446;50.926;5.332;2024-02-04T15:08:34;4.43;;;1.50;;
25553;SDS011;13446;50.926;5.332;2024-02-04T15:10:59;3.90;;;1.60;;
25553;SDS011;13446;50.926;5.332;2024-02-04T15:13:25;1.48;;;1.38;;
25553;SDS011;13446;50.926;5.332;2024-02-04T15:16:01;2.20;;;1.50;;
25553;SDS011;13446;50.926;5.332;2024-02-04T15:18:27;3.28;;;1.60;;
25553;SDS011;13446;50.926;5.332;2024-02-04T15:21:02;4.00;;;1.88;;
25553;SDS011;13446;50.926;5.332;2024-02-04T15:23:35;4.88;;;1.75;;
25553;SDS011;13446;50.926;5.332;2024-02-04T15:26:01;3.25;;;2.00;;
25553;SDS011;13446;50.926;5.332;2024-02-04T15:28:29;3.78;;;1.85;;
25553;SDS011;13446;50.926;5.332;2024-02-04T15:31:01;4.50;;;1.85;;
25553;SDS011;13446;50.926;5.332;2024-02-04T15:33:33;4.55;;;1.75;;
25553;SDS011;13446;50.926;5.332;2024-02-04T15:36:02;3.97;;;1.95;;
25553;SDS011;13446;50.926;5.332;2024-02-04T15:38:33;3.00;;;2.00;;
25553;SDS011;13446;50.926;5.332;2024-02-04T15:43:45;5.47;;;1.92;;
25553;SDS011;13446;50.926;5.332;2024-02-04T15:46:11;6.07;;;2.00;;
25553;SDS011;13446;50.926;5.332;2024-02-04T15:48:52;8.10;;;1.90;;
25553;SDS011;13446;50.926;5.332;2024-02-04T15:51:18;5.47;;;2.50;;
25553;SDS011;13446;50.926;5.332;2024-02-04T15:53:44;4.32;;;1.90;;
25553;SDS011;13446;50.926;5.332;2024-02-04T15:56:10;8.10;;;2.15;;
25553;SDS011;13446;50.926;5.332;2024-02-04T15:58:43;8.40;;;2.38;;
25553;SDS011;13446;50.926;5.332;2024-02-04T16:01:10;5.35;;;2.00;;
25553;SDS011;13446;50.926;5.332;2024-02-04T16:03:40;7.97;;;2.40;;
25553;SDS011;13446;50.926;5.332;2024-02-04T16:06:09;9.35;;;2.92;;
25553;SDS011;13446;50.926;5.332;2024-02-04T16:08:35;5.93;;;2.88;;
25553;SDS011;13446;50.926;5.332;2024-02-04T16:11:12;3.47;;;2.30;;
25553;SDS011;13446;50.926;5.332;2024-02-04T16:13:41;8.23;;;2.95;;
25553;SDS011;13446;50.926;5.332;2024-02-04T16:16:10;4.97;;;2.28;;
25553;SDS011;13446;50.926;5.332;2024-02-04T16:18:39;7.22;;;2.50;;
25553;SDS011;13446;50.926;5.332;2024-02-04T16:21:06;7.57;;;2.25;;
25553;SDS011;13446;50.926;5.332;2024-02-04T16:23:32;6.13;;;2.20;;
25553;SDS011;13446;50.926;5.332;2024-02-04T16:26:00;6.45;;;2.58;;
25553;SDS011;13446;50.926;5.332;2024-02-04T16:28:47;3.25;;;2.50;;
25553;SDS011;13446;50.926;5.332;2024-02-04T16:31:12;7.35;;;3.58;;
25553;SDS011;13446;50.926;5.332;2024-02-04T16:33:38;9.00;;;2.63;;
25553;SDS011;13446;50.926;5.332;2024-02-04T16:36:19;4.75;;;2.55;;
25553;SDS011;13446;50.926;5.332;2024-02-04T16:38:44;7.50;;;2.50;;
25553;SDS011;13446;50.926;5.332;2024-02-04T16:41:10;9.43;;;2.60;;
25553;SDS011;13446;50.926;5.332;2024-02-04T16:46:05;7.30;;;2.47;;
25553;SDS011;13446;50.926;5.332;2024-02-04T16:48:40;5.60;;;2.45;;
25553;SDS011;13446;50.926;5.332;2024-02-04T16:51:05;5.05;;;2.78;;
25553;SDS011;13446;50.926;5.332;2024-02-04T16:53:31;5.90;;;2.85;;
25553;SDS011;13446;50.926;5.332;2024-02-04T16:55:57;8.38;;;3.10;;
25553;SDS011;13446;50.926;5.332;2024-02-04T16:58:22;7.93;;;3.10;;
25553;SDS011;13446;50.926;5.332;2024-02-04T17:00:49;9.55;;;3.03;;
25553;SDS011;13446;50.926;5.332;2024-02-04T17:03:16;12.70;;;3.03;;
25553;SDS011;13446;50.926;5.332;2024-02-04T17:05:42;11.98;;;3.17;;
25553;SDS011;13446;50.926;5.332;2024-02-04T17:08:09;7.53;;;2.55;;
25553;SDS011;13446;50.926;5.332;2024-02-04T17:10:38;6.28;;;3.15;;